Time;durP1;ratioP1;P1;durP2;ratioP2;P2;SDS_P1;SDS_P2;PMS_P1;PMS_P2;Temp;Humidity;BMP_temperature;BMP_pressure;BME280_temperature;BME280_humidity;BME280_pressure;Samples;Min_cycle;Max_cycle;Signal;HPM_P1;HPM_P2
2021/05/29 00:00:28;;;;;;;;;;;21.40;44.40;;;;;;461218;258;1100;-45
2021/05/29 00:02:30;;;;;;;;;;;21.40;44.40;;;;;;461100;258;1069;-44
2021/05/29 00:04:31;;;;;;;;;;;21.50;44.40;;;;;;461086;258;1373;-45
2021/05/29 00:06:32;;;;;;;;;;;21.50;44.40;;;;;;461334;258;1108;-45
2021/05/29 00:08:33;;;;;;;;;;;21.50;44.30;;;;;;461102;258;1114;-45
2021/05/29 00:10:35;;;;;;;;;;;21.50;44.20;;;;;;461129;258;1433;-44
2021/05/29 00:12:36;;;;;;;;;;;21.50;44.20;;;;;;461440;258;1114;-44
2021/05/29 00:14:37;;;;;;;;;;;21.50;44.20;;;;;;461594;258;1126;-45
2021/05/29 00:16:39;;;;;;;;;;;21.60;44.10;;;;;;461342;258;2203;-44
2021/05/29 00:18:40;;;;;;;;;;;21.60;44.10;;;;;;461476;258;1061;-45
2021/05/29 00:20:41;;;;;;;;;;;21.60;44.20;;;;;;461572;258;1355;-45
2021/05/29 00:22:42;;;;;;;;;;;21.60;44.10;;;;;;461544;258;1115;-45
2021/05/29 00:24:44;;;;;;;;;;;21.60;44.00;;;;;;461621;258;1068;-45
2021/05/29 00:26:45;;;;;;;;;;;21.60;44.00;;;;;;461226;258;1417;-45
2021/05/29 00:28:46;;;;;;;;;;;21.60;44.10;;;;;;461138;258;1296;-45
2021/05/29 00:30:48;;;;;;;;;;;21.70;44.10;;;;;;461400;258;1433;-44
2021/05/29 00:32:49;;;;;;;;;;;21.60;44.10;;;;;;461178;258;1040;-44
2021/05/29 00:34:50;;;;;;;;;;;21.70;44.10;;;;;;461462;258;1155;-45
2021/05/29 00:36:51;;;;;;;;;;;21.70;44.00;;;;;;461369;258;2133;-44
2021/05/29 00:38:53;;;;;;;;;;;21.70;44.00;;;;;;461146;258;1198;-45
2021/05/29 00:40:54;;;;;;;;;;;21.70;43.90;;;;;;461535;258;1243;-44
2021/05/29 00:42:56;;;;;;;;;;;21.80;43.90;;;;;;461264;258;1966;-45
2021/05/29 00:44:58;;;;;;;;;;;21.70;43.90;;;;;;461546;258;1094;-45
2021/05/29 00:46:59;;;;;;;;;;;21.70;43.90;;;;;;461174;258;1107;-44
2021/05/29 00:49:00;;;;;;;;;;;21.80;43.90;;;;;;461578;258;1210;-45
2021/05/29 00:51:01;;;;;;;;;;;21.80;43.90;;;;;;461218;258;1581;-45
2021/05/29 00:53:03;;;;;;;;;;;21.80;43.80;;;;;;461546;258;1092;-45
2021/05/29 00:55:04;;;;;;;;;;;21.80;43.80;;;;;;461561;258;2173;-45
2021/05/29 00:57:05;;;;;;;;;;;21.80;43.80;;;;;;461081;258;1300;-45
2021/05/29 00:59:07;;;;;;;;;;;21.80;43.80;;;;;;461060;258;1101;-45
2021/05/29 01:01:08;;;;;;;;;;;21.90;43.80;;;;;;461265;258;1388;-45
2021/05/29 01:03:09;;;;;;;;;;;21.90;43.80;;;;;;461471;258;1081;-45
2021/05/29 01:05:11;;;;;;;;;;;21.90;43.80;;;;;;461212;258;1146;-45
2021/05/29 01:07:12;;;;;;;;;;;21.90;43.80;;;;;;461322;258;1205;-45
2021/05/29 01:09:13;;;;;;;;;;;21.90;43.70;;;;;;461429;258;1090;-45
2021/05/29 01:11:14;;;;;;;;;;;21.90;43.70;;;;;;461087;258;1266;-44
2021/05/29 01:13:16;;;;;;;;;;;21.90;43.70;;;;;;461377;258;1190;-45
2021/05/29 01:15:18;;;;;;;;;;;21.90;43.80;;;;;;461313;258;2208;-45
2021/05/29 01:17:18;;;;;;;;;;;22.00;43.60;;;;;;461192;258;2189;-45
2021/05/29 01:19:20;;;;;;;;;;;21.80;43.80;;;;;;461557;258;1061;-44
2021/05/29 01:21:21;;;;;;;;;;;21.30;45.00;;;;;;461012;258;1347;-45
2021/05/29 01:23:22;;;;;;;;;;;20.70;46.30;;;;;;461128;258;1084;-45
2021/05/29 01:25:24;;;;;;;;;;;20.30;47.30;;;;;;461179;258;1060;-44
2021/05/29 01:27:25;;;;;;;;;;;20.10;48.00;;;;;;461208;258;1677;-44
2021/05/29 01:29:26;;;;;;;;;;;19.90;48.50;;;;;;461308;258;1074;-44
2021/05/29 01:31:29;;;;;;;;;;;19.70;48.90;;;;;;461637;258;1096;-44
2021/05/29 01:33:29;;;;;;;;;;;19.60;49.20;;;;;;461502;258;2139;-44
2021/05/29 01:35:30;;;;;;;;;;;19.60;49.40;;;;;;461196;258;2216;-44
2021/05/29 01:37:31;;;;;;;;;;;19.40;49.70;;;;;;461554;258;1055;-44
2021/05/29 01:39:32;;;;;;;;;;;19.40;49.90;;;;;;461379;258;1095;-45
2021/05/29 01:41:34;;;;;;;;;;;19.30;50.00;;;;;;461178;258;1093;-44
2021/05/29 01:43:35;;;;;;;;;;;19.20;50.10;;;;;;461613;258;1083;-44
2021/05/29 01:45:36;;;;;;;;;;;19.20;50.20;;;;;;461139;258;1145;-44
2021/05/29 01:47:40;;;;;;;;;;;19.20;50.30;;;;;;461308;258;1113;-44
2021/05/29 01:49:39;;;;;;;;;;;19.10;50.40;;;;;;461311;258;2313;-44
2021/05/29 01:51:40;;;;;;;;;;;19.10;50.40;;;;;;461455;258;1072;-45
2021/05/29 01:53:42;;;;;;;;;;;19.10;50.50;;;;;;461513;258;1267;-44
2021/05/29 01:55:43;;;;;;;;;;;19.10;50.60;;;;;;461326;258;2197;-44
2021/05/29 01:57:44;;;;;;;;;;;19.10;50.60;;;;;;461189;258;1175;-44
2021/05/29 01:59:46;;;;;;;;;;;19.00;50.70;;;;;;461641;258;1075;-44
2021/05/29 02:01:47;;;;;;;;;;;19.00;50.80;;;;;;461207;258;2128;-44
2021/05/29 02:03:48;;;;;;;;;;;18.90;50.80;;;;;;461145;258;1072;-44
2021/05/29 02:05:49;;;;;;;;;;;18.90;50.80;;;;;;461279;258;1157;-44
2021/05/29 02:07:51;;;;;;;;;;;18.90;50.90;;;;;;461562;258;1085;-44
2021/05/29 02:09:52;;;;;;;;;;;18.80;51.00;;;;;;461553;258;1061;-44
2021/05/29 02:11:53;;;;;;;;;;;18.80;51.10;;;;;;461145;258;1053;-44
2021/05/29 02:13:55;;;;;;;;;;;18.80;51.20;;;;;;461185;258;1216;-45
2021/05/29 02:15:56;;;;;;;;;;;18.70;51.20;;;;;;461335;258;2219;-44
2021/05/29 02:17:57;;;;;;;;;;;18.70;51.20;;;;;;461153;258;1145;-45
2021/05/29 02:19:58;;;;;;;;;;;18.70;51.20;;;;;;461298;258;1237;-44
2021/05/29 02:22:00;;;;;;;;;;;18.70;51.30;;;;;;461219;258;1132;-44
2021/05/29 02:24:01;;;;;;;;;;;18.70;51.30;;;;;;461596;258;1087;-44
2021/05/29 02:26:03;;;;;;;;;;;18.70;51.20;;;;;;461196;258;1093;-44
2021/05/29 02:28:04;;;;;;;;;;;18.70;51.30;;;;;;461220;258;2353;-44
2021/05/29 02:30:05;;;;;;;;;;;18.70;51.40;;;;;;461661;258;1041;-45
2021/05/29 02:32:06;;;;;;;;;;;18.70;51.30;;;;;;461214;258;1073;-44
2021/05/29 02:34:07;;;;;;;;;;;18.60;51.30;;;;;;461116;258;1048;-45
2021/05/29 02:36:09;;;;;;;;;;;18.60;51.40;;;;;;461563;258;2192;-44
2021/05/29 02:38:10;;;;;;;;;;;18.60;51.50;;;;;;461451;258;1097;-44
2021/05/29 02:40:11;;;;;;;;;;;18.60;51.60;;;;;;461041;258;1102;-45
2021/05/29 02:42:13;;;;;;;;;;;18.50;51.50;;;;;;461250;258;1192;-44
2021/05/29 02:44:14;;;;;;;;;;;18.60;51.50;;;;;;461143;258;1130;-44
2021/05/29 02:46:15;;;;;;;;;;;18.60;51.60;;;;;;461075;258;1293;-44
2021/05/29 02:48:16;;;;;;;;;;;18.50;51.50;;;;;;461154;258;1079;-44
2021/05/29 02:50:18;;;;;;;;;;;18.50;51.50;;;;;;461586;258;1364;-44
2021/05/29 02:52:19;;;;;;;;;;;18.50;51.60;;;;;;461128;258;1158;-44
2021/05/29 02:54:22;;;;;;;;;;;18.50;51.60;;;;;;461142;258;1099;-44
2021/05/29 02:56:22;;;;;;;;;;;18.50;51.50;;;;;;461423;258;2144;-44
2021/05/29 02:58:23;;;;;;;;;;;18.50;51.70;;;;;;461121;258;1116;-44
2021/05/29 03:00:25;;;;;;;;;;;18.40;51.50;;;;;;461277;258;1253;-45
2021/05/29 03:02:26;;;;;;;;;;;18.70;51.30;;;;;;461263;258;1289;-44
2021/05/29 03:04:27;;;;;;;;;;;19.10;50.20;;;;;;461101;258;1227;-44
2021/05/29 03:06:29;;;;;;;;;;;19.40;49.10;;;;;;461162;258;1196;-45
2021/05/29 03:08:30;;;;;;;;;;;19.70;48.40;;;;;;461479;258;1094;-44
2021/05/29 03:10:31;;;;;;;;;;;19.90;47.80;;;;;;461161;258;1317;-45
2021/05/29 03:12:32;;;;;;;;;;;20.10;47.30;;;;;;461087;258;1205;-44
2021/05/29 03:14:34;;;;;;;;;;;20.20;46.90;;;;;;461197;258;1153;-44
2021/05/29 03:16:35;;;;;;;;;;;20.30;46.70;;;;;;461522;258;2212;-45
2021/05/29 03:18:36;;;;;;;;;;;20.40;46.50;;;;;;461372;258;1163;-44
2021/05/29 03:20:37;;;;;;;;;;;20.50;46.30;;;;;;461511;258;1155;-44
2021/05/29 03:22:39;;;;;;;;;;;20.60;46.20;;;;;;461181;258;1197;-45
2021/05/29 03:24:40;;;;;;;;;;;20.60;46.10;;;;;;461218;258;1064;-44
2021/05/29 03:26:41;;;;;;;;;;;20.70;46.00;;;;;;461322;258;1633;-44
2021/05/29 03:28:43;;;;;;;;;;;20.70;45.90;;;;;;461348;258;1177;-45
2021/05/29 03:30:44;;;;;;;;;;;20.80;45.80;;;;;;461080;258;1121;-45
2021/05/29 03:32:46;;;;;;;;;;;20.80;45.70;;;;;;461217;258;1346;-45
2021/05/29 03:34:47;;;;;;;;;;;20.80;45.60;;;;;;461429;258;1140;-45
2021/05/29 03:36:48;;;;;;;;;;;20.90;45.60;;;;;;461078;258;2195;-45
2021/05/29 03:38:50;;;;;;;;;;;20.90;45.40;;;;;;461107;258;1108;-45
2021/05/29 03:40:51;;;;;;;;;;;20.90;45.40;;;;;;461533;258;1727;-45
2021/05/29 03:42:52;;;;;;;;;;;21.00;45.30;;;;;;461174;258;1249;-45
2021/05/29 03:44:53;;;;;;;;;;;21.00;45.20;;;;;;461331;258;1152;-45
2021/05/29 03:46:55;;;;;;;;;;;21.00;45.10;;;;;;461361;258;1212;-44
2021/05/29 03:48:56;;;;;;;;;;;21.10;45.10;;;;;;461265;258;1061;-44
2021/05/29 03:50:57;;;;;;;;;;;21.10;45.00;;;;;;461254;258;1261;-45
2021/05/29 03:52:58;;;;;;;;;;;21.10;45.00;;;;;;461136;258;1185;-45
2021/05/29 03:55:00;;;;;;;;;;;21.20;44.90;;;;;;461168;258;1096;-44
2021/05/29 03:57:01;;;;;;;;;;;21.20;44.90;;;;;;461194;258;2219;-45
2021/05/29 03:59:03;;;;;;;;;;;21.20;44.80;;;;;;461297;258;1188;-45
2021/05/29 04:01:04;;;;;;;;;;;21.20;44.70;;;;;;461144;258;1517;-45
2021/05/29 04:03:05;;;;;;;;;;;21.30;44.70;;;;;;461326;258;1331;-44
2021/05/29 04:05:06;;;;;;;;;;;21.30;44.70;;;;;;461070;258;1070;-44
2021/05/29 04:07:07;;;;;;;;;;;21.30;44.70;;;;;;461513;258;1145;-45
2021/05/29 04:09:09;;;;;;;;;;;21.30;44.60;;;;;;461523;258;1210;-45
2021/05/29 04:11:10;;;;;;;;;;;21.30;44.50;;;;;;461590;258;1297;-45
2021/05/29 04:13:11;;;;;;;;;;;21.40;44.60;;;;;;461475;258;1094;-45
2021/05/29 04:15:13;;;;;;;;;;;21.40;44.50;;;;;;461365;258;1156;-44
2021/05/29 04:17:14;;;;;;;;;;;21.40;44.50;;;;;;461137;258;2209;-45
2021/05/29 04:19:15;;;;;;;;;;;21.40;44.50;;;;;;461618;258;1123;-45
2021/05/29 04:21:16;;;;;;;;;;;21.40;44.50;;;;;;461232;258;1237;-44
2021/05/29 04:23:18;;;;;;;;;;;21.40;44.50;;;;;;461286;258;1198;-45
2021/05/29 04:25:19;;;;;;;;;;;21.50;44.50;;;;;;461360;258;1178;-45
2021/05/29 04:27:21;;;;;;;;;;;21.50;44.40;;;;;;461325;258;1367;-45
2021/05/29 04:29:22;;;;;;;;;;;21.50;44.40;;;;;;461164;258;1328;-45
2021/05/29 04:31:23;;;;;;;;;;;21.50;44.30;;;;;;461512;258;1055;-45
2021/05/29 04:33:24;;;;;;;;;;;21.50;44.30;;;;;;461386;258;1006;-44
2021/05/29 04:35:25;;;;;;;;;;;21.50;44.30;;;;;;461235;258;1105;-45
2021/05/29 04:37:27;;;;;;;;;;;21.50;44.20;;;;;;461564;258;2160;-45
2021/05/29 04:39:28;;;;;;;;;;;21.60;44.30;;;;;;461469;258;1097;-45
2021/05/29 04:41:29;;;;;;;;;;;21.60;44.20;;;;;;461332;258;1084;-45
2021/05/29 04:43:31;;;;;;;;;;;21.60;44.20;;;;;;461256;258;1121;-45
2021/05/29 04:45:32;;;;;;;;;;;21.60;44.20;;;;;;461400;258;1210;-45
2021/05/29 04:47:33;;;;;;;;;;;21.60;44.20;;;;;;461303;258;1122;-45
2021/05/29 04:49:34;;;;;;;;;;;21.60;44.20;;;;;;461421;258;1124;-45
2021/05/29 04:51:36;;;;;;;;;;;21.60;44.10;;;;;;461081;258;1174;-45
2021/05/29 04:53:37;;;;;;;;;;;21.70;44.10;;;;;;461193;258;1114;-44
2021/05/29 04:55:39;;;;;;;;;;;21.70;44.10;;;;;;461374;258;1347;-45
2021/05/29 04:57:40;;;;;;;;;;;21.70;44.10;;;;;;461188;258;2192;-45
2021/05/29 04:59:41;;;;;;;;;;;21.70;44.10;;;;;;461567;258;1175;-45
2021/05/29 05:01:42;;;;;;;;;;;21.70;44.10;;;;;;461571;258;1242;-45
2021/05/29 05:03:44;;;;;;;;;;;21.70;44.10;;;;;;461451;258;974;-45
2021/05/29 05:05:45;;;;;;;;;;;21.70;44.10;;;;;;461231;258;1327;-45
2021/05/29 05:07:46;;;;;;;;;;;21.70;44.10;;;;;;461595;258;1077;-45
2021/05/29 05:09:48;;;;;;;;;;;21.70;44.00;;;;;;461576;258;1120;-45
2021/05/29 05:11:49;;;;;;;;;;;21.70;44.00;;;;;;461623;258;1399;-45
2021/05/29 05:13:50;;;;;;;;;;;21.80;44.00;;;;;;461169;258;1128;-45
2021/05/29 05:15:51;;;;;;;;;;;21.80;44.00;;;;;;461287;258;1207;-45
2021/05/29 05:17:53;;;;;;;;;;;21.80;44.00;;;;;;461077;258;2223;-45
2021/05/29 05:19:54;;;;;;;;;;;21.80;44.00;;;;;;461294;258;1241;-45
2021/05/29 05:21:55;;;;;;;;;;;21.80;44.00;;;;;;461193;258;1274;-45
2021/05/29 05:23:56;;;;;;;;;;;21.80;44.00;;;;;;461296;258;1154;-45
2021/05/29 05:25:58;;;;;;;;;;;21.80;43.90;;;;;;461133;258;1442;-45
2021/05/29 05:27:59;;;;;;;;;;;21.80;43.90;;;;;;461105;258;1111;-45
2021/05/29 05:30:00;;;;;;;;;;;21.80;43.90;;;;;;461620;258;1078;-45
2021/05/29 05:32:02;;;;;;;;;;;21.80;43.90;;;;;;461209;258;1363;-45
2021/05/29 05:34:08;;;;;;;;;;;21.80;43.90;;;;;;461566;258;1137;-45
2021/05/29 05:36:07;;;;;;;;;;;21.90;43.90;;;;;;461315;258;2075;-45
2021/05/29 05:38:06;;;;;;;;;;;21.90;43.90;;;;;;461331;258;2213;-45
2021/05/29 05:40:07;;;;;;;;;;;21.90;43.90;;;;;;461530;258;1061;-45
2021/05/29 05:42:08;;;;;;;;;;;21.90;43.90;;;;;;461396;258;1158;-45
2021/05/29 05:44:09;;;;;;;;;;;21.90;43.90;;;;;;461097;258;1249;-45
2021/05/29 05:46:12;;;;;;;;;;;21.90;43.80;;;;;;461280;258;1298;-45
2021/05/29 05:48:12;;;;;;;;;;;21.90;43.80;;;;;;461026;258;2850;-44
2021/05/29 05:50:13;;;;;;;;;;;21.90;43.80;;;;;;461548;258;1125;-44
2021/05/29 05:52:15;;;;;;;;;;;21.90;43.80;;;;;;461545;258;1326;-45
2021/05/29 05:54:16;;;;;;;;;;;21.90;43.90;;;;;;461553;258;1107;-45
2021/05/29 05:56:25;;;;;;;;;;;21.90;43.90;;;;;;461567;258;1400;-45
2021/05/29 05:58:18;;;;;;;;;;;21.50;44.60;;;;;;460669;258;2459;-45
2021/05/29 06:00:20;;;;;;;;;;;21.00;45.80;;;;;;461480;258;1112;-45
2021/05/29 06:02:21;;;;;;;;;;;20.50;46.90;;;;;;461141;258;1227;-44
2021/05/29 06:04:22;;;;;;;;;;;20.20;47.70;;;;;;461493;258;1142;-44
2021/05/29 06:06:24;;;;;;;;;;;20.00;48.30;;;;;;461179;258;1360;-44
2021/05/29 06:08:25;;;;;;;;;;;19.80;48.80;;;;;;461109;258;1353;-44
2021/05/29 06:10:26;;;;;;;;;;;19.70;49.10;;;;;;461041;258;1112;-44
2021/05/29 06:12:27;;;;;;;;;;;19.60;49.40;;;;;;461063;258;1231;-44
2021/05/29 06:19:12;;;;;;;;;;;19.40;49.90;;;;;;461131;258;1063;-44
2021/05/29 06:21:12;;;;;;;;;;;19.40;50.10;;;;;;460993;258;1863;-44
2021/05/29 06:23:14;;;;;;;;;;;19.30;50.20;;;;;;461449;258;1111;-44
2021/05/29 06:25:15;;;;;;;;;;;19.20;50.30;;;;;;461347;258;1058;-44
2021/05/29 06:27:16;;;;;;;;;;;19.20;50.30;;;;;;461125;258;1540;-44
2021/05/29 06:29:17;;;;;;;;;;;19.20;50.50;;;;;;461081;258;1100;-44
2021/05/29 06:31:19;;;;;;;;;;;19.10;50.50;;;;;;461078;258;1388;-44
2021/05/29 06:33:20;;;;;;;;;;;19.10;50.70;;;;;;461173;258;1087;-44
2021/05/29 06:35:21;;;;;;;;;;;19.10;50.80;;;;;;461348;258;1399;-44
2021/05/29 06:37:22;;;;;;;;;;;19.00;50.80;;;;;;460952;258;2204;-44
2021/05/29 06:39:24;;;;;;;;;;;18.90;50.90;;;;;;461025;258;1229;-44
2021/05/29 06:41:25;;;;;;;;;;;19.00;51.00;;;;;;461097;258;1437;-44
2021/05/29 06:43:26;;;;;;;;;;;19.00;51.00;;;;;;461322;258;1110;-44
2021/05/29 06:45:30;;;;;;;;;;;19.00;50.90;;;;;;461526;258;1061;-44
2021/05/29 06:47:29;;;;;;;;;;;18.90;51.10;;;;;;461111;258;2292;-44
2021/05/29 06:49:30;;;;;;;;;;;18.90;51.10;;;;;;461440;258;1098;-44
2021/05/29 06:51:36;;;;;;;;;;;18.80;51.20;;;;;;461263;258;1360;-44
2021/05/29 06:53:40;;;;;;;;;;;18.80;51.30;;;;;;461032;258;2232;-45
2021/05/29 07:00:15;;;;;;;;;;;18.70;51.30;;;;;;461142;258;1133;-45
2021/05/29 07:02:16;;;;;;;;;;;18.70;51.40;;;;;;461093;258;1139;-44
2021/05/29 07:04:18;;;;;;;;;;;18.70;51.40;;;;;;461086;258;1074;-44
2021/05/29 07:06:19;;;;;;;;;;;18.70;51.40;;;;;;461151;258;1032;-44
2021/05/29 07:08:21;;;;;;;;;;;18.70;51.50;;;;;;461127;258;1259;-44
2021/05/29 07:10:22;;;;;;;;;;;18.70;51.50;;;;;;461540;258;1134;-44
2021/05/29 07:12:23;;;;;;;;;;;18.60;51.60;;;;;;461129;258;1069;-44
2021/05/29 07:14:25;;;;;;;;;;;18.60;51.50;;;;;;461061;258;1100;-44
2021/05/29 07:16:26;;;;;;;;;;;18.60;51.60;;;;;;461469;258;1244;-44
2021/05/29 07:18:30;;;;;;;;;;;18.60;51.60;;;;;;461190;258;2209;-45
2021/05/29 07:20:31;;;;;;;;;;;18.60;51.60;;;;;;461071;258;2134;-44
2021/05/29 07:22:31;;;;;;;;;;;18.60;51.60;;;;;;461025;258;1361;-44
2021/05/29 07:24:33;;;;;;;;;;;18.60;51.70;;;;;;461118;258;1076;-44
2021/05/29 07:26:34;;;;;;;;;;;18.50;51.70;;;;;;460989;258;1535;-44
2021/05/29 07:28:35;;;;;;;;;;;18.60;51.60;;;;;;461415;258;1189;-44
2021/05/29 07:30:36;;;;;;;;;;;18.50;51.70;;;;;;461476;258;1099;-44
2021/05/29 07:32:38;;;;;;;;;;;18.50;51.70;;;;;;461042;258;1212;-44
2021/05/29 07:34:39;;;;;;;;;;;18.50;51.80;;;;;;461528;258;1107;-44
2021/05/29 07:36:40;;;;;;;;;;;18.50;51.90;;;;;;461106;258;1060;-44
2021/05/29 07:38:41;;;;;;;;;;;18.40;51.80;;;;;;461276;258;2223;-44
2021/05/29 07:40:43;;;;;;;;;;;18.50;51.80;;;;;;461258;258;1252;-44
2021/05/29 07:42:44;;;;;;;;;;;18.40;51.80;;;;;;461506;258;1201;-44
2021/05/29 07:44:46;;;;;;;;;;;18.40;51.80;;;;;;461579;258;1183;-45
2021/05/29 07:46:47;;;;;;;;;;;18.60;51.60;;;;;;461221;258;1256;-44
2021/05/29 07:48:50;;;;;;;;;;;19.00;50.50;;;;;;461253;258;1204;-44
2021/05/29 07:51:00;;;;;;;;;;;19.40;49.30;;;;;;461267;258;2144;-44
2021/05/29 07:53:01;;;;;;;;;;;19.70;48.50;;;;;;460961;258;1994;-44
2021/05/29 07:55:02;;;;;;;;;;;19.90;48.00;;;;;;461147;258;1535;-44
2021/05/29 07:57:03;;;;;;;;;;;20.00;47.40;;;;;;461448;258;1651;-44
2021/05/29 07:59:06;;;;;;;;;;;20.20;47.10;;;;;;461109;258;2149;-45
2021/05/29 08:01:07;;;;;;;;;;;20.30;46.90;;;;;;461277;258;1634;-45
2021/05/29 08:03:09;;;;;;;;;;;20.40;46.80;;;;;;461370;258;1194;-44
2021/05/29 08:05:16;;;;;;;;;;;20.40;46.60;;;;;;461410;258;1100;-45
2021/05/29 08:07:13;;;;;;;;;;;20.50;46.50;;;;;;461207;258;2235;-44
2021/05/29 08:09:14;;;;;;;;;;;20.60;46.30;;;;;;461531;258;1081;-44
2021/05/29 08:11:21;;;;;;;;;;;20.60;46.20;;;;;;461049;258;1195;-45
2021/05/29 08:13:18;;;;;;;;;;;20.60;46.10;;;;;;460872;258;2148;-45
2021/05/29 08:15:19;;;;;;;;;;;20.70;46.00;;;;;;461552;258;1125;-45
2021/05/29 08:17:20;;;;;;;;;;;20.70;45.90;;;;;;461173;258;1442;-45
2021/05/29 08:19:22;;;;;;;;;;;20.80;45.90;;;;;;461094;258;2200;-44
2021/05/29 08:21:23;;;;;;;;;;;20.80;45.80;;;;;;461293;258;1226;-44
2021/05/29 08:23:24;;;;;;;;;;;20.80;45.70;;;;;;461437;258;1137;-44
2021/05/29 08:25:25;;;;;;;;;;;20.90;45.60;;;;;;461229;258;1100;-44
2021/05/29 08:27:27;;;;;;;;;;;20.90;45.50;;;;;;461235;258;1190;-44
2021/05/29 08:29:28;;;;;;;;;;;20.90;45.40;;;;;;461425;258;1120;-45
2021/05/29 08:31:29;;;;;;;;;;;21.00;45.40;;;;;;461148;258;1086;-45
2021/05/29 08:33:31;;;;;;;;;;;21.00;45.30;;;;;;461433;258;1196;-45
2021/05/29 08:35:32;;;;;;;;;;;21.00;45.30;;;;;;461599;258;1087;-45
2021/05/29 08:37:34;;;;;;;;;;;21.10;45.30;;;;;;461182;258;2212;-45
2021/05/29 08:39:35;;;;;;;;;;;21.10;45.20;;;;;;461073;258;1102;-45
2021/05/29 08:41:36;;;;;;;;;;;21.10;45.10;;;;;;461212;258;1228;-45
2021/05/29 08:43:37;;;;;;;;;;;21.10;45.10;;;;;;461086;258;1079;-45
2021/05/29 08:45:39;;;;;;;;;;;21.20;45.10;;;;;;461172;258;1248;-45
2021/05/29 08:47:40;;;;;;;;;;;21.20;45.00;;;;;;461022;258;1190;-45
2021/05/29 08:49:42;;;;;;;;;;;21.20;45.00;;;;;;461128;258;1136;-45
2021/05/29 08:51:43;;;;;;;;;;;21.20;44.90;;;;;;461101;258;1655;-45
2021/05/29 08:53:44;;;;;;;;;;;21.20;44.90;;;;;;461151;258;1035;-44
2021/05/29 08:55:45;;;;;;;;;;;21.20;44.90;;;;;;461220;258;1346;-45
2021/05/29 08:57:48;;;;;;;;;;;21.20;44.80;;;;;;461079;258;2204;-45
2021/05/29 08:59:48;;;;;;;;;;;21.30;44.80;;;;;;461174;258;2027;-45
2021/05/29 09:01:50;;;;;;;;;;;21.30;44.80;;;;;;461049;258;1320;-45
2021/05/29 09:03:51;;;;;;;;;;;21.30;44.70;;;;;;461236;258;1177;-45
2021/05/29 09:05:53;;;;;;;;;;;21.30;44.80;;;;;;461055;258;1249;-45
2021/05/29 09:07:54;;;;;;;;;;;21.30;44.70;;;;;;461010;258;1088;-45
2021/05/29 09:09:55;;;;;;;;;;;21.30;44.70;;;;;;461401;258;1076;-45
2021/05/29 09:11:58;;;;;;;;;;;21.40;44.70;;;;;;461091;258;1224;-44
2021/05/29 09:13:58;;;;;;;;;;;21.40;44.70;;;;;;461003;258;1827;-45
2021/05/29 09:15:59;;;;;;;;;;;21.40;44.70;;;;;;461144;258;1105;-45
2021/05/29 09:18:00;;;;;;;;;;;21.40;44.70;;;;;;461045;258;2221;-44
2021/05/29 09:20:02;;;;;;;;;;;21.40;44.60;;;;;;461242;258;1173;-45
2021/05/29 09:22:03;;;;;;;;;;;21.40;44.60;;;;;;461006;258;1360;-44
2021/05/29 09:24:04;;;;;;;;;;;21.40;44.60;;;;;;461090;258;1067;-45
2021/05/29 09:26:05;;;;;;;;;;;21.40;44.50;;;;;;461086;258;1245;-45
2021/05/29 09:28:07;;;;;;;;;;;21.50;44.60;;;;;;461180;258;1382;-45
2021/05/29 09:30:08;;;;;;;;;;;21.50;44.50;;;;;;461222;258;1275;-45
2021/05/29 09:32:09;;;;;;;;;;;21.50;44.50;;;;;;461363;258;1242;-45
2021/05/29 09:34:10;;;;;;;;;;;21.50;44.50;;;;;;461099;258;1385;-44
2021/05/29 09:36:12;;;;;;;;;;;21.50;44.40;;;;;;461280;258;1263;-45
2021/05/29 09:38:13;;;;;;;;;;;21.50;44.40;;;;;;461069;258;2200;-45
2021/05/29 09:40:14;;;;;;;;;;;21.50;44.40;;;;;;461239;258;1287;-45
2021/05/29 09:42:15;;;;;;;;;;;21.60;44.40;;;;;;461271;258;1230;-45
2021/05/29 09:44:18;;;;;;;;;;;21.60;44.30;;;;;;461479;258;1096;-44
2021/05/29 09:46:18;;;;;;;;;;;21.60;44.30;;;;;;461028;258;2685;-45
2021/05/29 09:48:19;;;;;;;;;;;21.60;44.30;;;;;;461134;258;1077;-45
2021/05/29 09:50:21;;;;;;;;;;;21.60;44.20;;;;;;461203;258;1221;-45
2021/05/29 09:52:22;;;;;;;;;;;21.60;44.30;;;;;;461116;258;1073;-44
2021/05/29 09:54:23;;;;;;;;;;;21.60;44.20;;;;;;461537;258;1133;-45
2021/05/29 09:56:25;;;;;;;;;;;21.60;44.20;;;;;;461412;258;1134;-45
2021/05/29 09:58:26;;;;;;;;;;;21.70;44.20;;;;;;461119;258;2156;-45
2021/05/29 10:00:27;;;;;;;;;;;21.70;44.10;;;;;;461151;258;1269;-45
2021/05/29 10:02:28;;;;;;;;;;;21.70;44.10;;;;;;461049;258;1266;-45
2021/05/29 10:04:31;;;;;;;;;;;21.70;44.10;;;;;;461164;258;1157;-45
2021/05/29 10:06:32;;;;;;;;;;;21.80;44.10;;;;;;461009;258;1330;-45
2021/05/29 10:08:33;;;;;;;;;;;21.80;44.10;;;;;;461077;258;1113;-45
2021/05/29 10:10:34;;;;;;;;;;;21.70;44.10;;;;;;461508;258;1341;-45
2021/05/29 10:12:36;;;;;;;;;;;21.80;44.10;;;;;;461079;258;1197;-45
2021/05/29 10:14:37;;;;;;;;;;;21.70;44.10;;;;;;461409;258;1235;-45
2021/05/29 10:16:38;;;;;;;;;;;21.80;44.10;;;;;;461512;258;1208;-45
2021/05/29 10:18:39;;;;;;;;;;;21.80;44.10;;;;;;461337;258;2208;-44
2021/05/29 10:20:41;;;;;;;;;;;21.80;44.10;;;;;;461318;258;1120;-45
2021/05/29 10:22:42;;;;;;;;;;;21.80;44.10;;;;;;461337;258;1071;-44
2021/05/29 10:24:44;;;;;;;;;;;21.80;44.00;;;;;;461542;258;1109;-45
2021/05/29 10:26:45;;;;;;;;;;;21.80;44.00;;;;;;461449;258;1308;-45
2021/05/29 10:28:46;;;;;;;;;;;21.80;44.00;;;;;;461075;258;1132;-45
2021/05/29 10:30:48;;;;;;;;;;;21.80;44.00;;;;;;461055;258;1092;-45
2021/05/29 10:32:49;;;;;;;;;;;21.80;44.00;;;;;;461117;258;1099;-45
2021/05/29 10:34:50;;;;;;;;;;;21.80;44.00;;;;;;461102;258;1081;-45
2021/05/29 10:36:54;;;;;;;;;;;21.90;44.00;;;;;;461503;258;1160;-45
2021/05/29 10:38:53;;;;;;;;;;;21.90;44.00;;;;;;461068;258;2200;-45
2021/05/29 10:40:55;;;;;;;;;;;21.80;44.00;;;;;;461162;258;1045;-45
2021/05/29 10:42:56;;;;;;;;;;;21.90;44.00;;;;;;461336;258;1264;-45
2021/05/29 10:44:57;;;;;;;;;;;21.80;44.00;;;;;;461127;258;1088;-45
2021/05/29 10:46:59;;;;;;;;;;;21.90;43.90;;;;;;461163;258;1207;-45
2021/05/29 10:49:00;;;;;;;;;;;21.60;44.30;;;;;;461121;258;1148;-44
2021/05/29 10:51:04;;;;;;;;;;;21.20;45.50;;;;;;461306;258;1114;-45
2021/05/29 10:53:05;;;;;;;;;;;20.60;46.80;;;;;;460958;258;2091;-44
2021/05/29 10:55:06;;;;;;;;;;;20.30;47.60;;;;;;461046;258;1073;-44
2021/05/29 10:57:07;;;;;;;;;;;20.00;48.30;;;;;;461427;258;1087;-44
2021/05/29 10:59:09;;;;;;;;;;;19.80;48.80;;;;;;461128;258;2212;-44
2021/05/29 11:01:10;;;;;;;;;;;19.70;49.10;;;;;;461293;258;1626;-45
2021/05/29 11:03:11;;;;;;;;;;;19.60;49.40;;;;;;461050;258;1195;-44
2021/05/29 11:05:12;;;;;;;;;;;19.60;49.60;;;;;;461248;258;1069;-44
2021/05/29 11:07:14;;;;;;;;;;;19.50;49.70;;;;;;461022;258;1298;-44
2021/05/29 11:09:15;;;;;;;;;;;19.40;49.80;;;;;;461047;258;1090;-44
2021/05/29 11:11:16;;;;;;;;;;;19.40;50.10;;;;;;461280;258;1348;-44
2021/05/29 11:13:18;;;;;;;;;;;19.30;50.10;;;;;;461569;258;1175;-44
2021/05/29 11:15:21;;;;;;;;;;;19.30;50.20;;;;;;461163;258;1080;-44
2021/05/29 11:17:21;;;;;;;;;;;19.20;50.40;;;;;;460931;258;2068;-44
2021/05/29 11:19:22;;;;;;;;;;;19.10;50.50;;;;;;461110;258;2145;-44
2021/05/29 11:21:24;;;;;;;;;;;19.20;50.50;;;;;;460968;258;1231;-44
2021/05/29 11:23:25;;;;;;;;;;;19.10;50.60;;;;;;461224;258;1236;-44
2021/05/29 11:25:27;;;;;;;;;;;19.10;50.80;;;;;;461431;258;1070;-44
2021/05/29 11:27:28;;;;;;;;;;;19.00;50.80;;;;;;461207;258;2543;-44
2021/05/29 11:29:29;;;;;;;;;;;19.00;50.80;;;;;;461142;258;1123;-44
2021/05/29 11:31:30;;;;;;;;;;;19.00;50.90;;;;;;461306;258;1320;-44
2021/05/29 11:33:31;;;;;;;;;;;18.90;51.10;;;;;;461114;258;1118;-44
2021/05/29 11:35:33;;;;;;;;;;;18.90;51.10;;;;;;461122;258;1127;-44
2021/05/29 11:37:34;;;;;;;;;;;18.90;51.10;;;;;;461105;258;1542;-45
2021/05/29 11:39:36;;;;;;;;;;;18.90;51.10;;;;;;461098;258;2265;-45
2021/05/29 11:41:37;;;;;;;;;;;18.80;51.10;;;;;;461224;258;1152;-44
2021/05/29 11:43:39;;;;;;;;;;;18.80;51.10;;;;;;461487;258;1113;-44
2021/05/29 11:45:40;;;;;;;;;;;18.80;51.30;;;;;;461401;258;1088;-45
2021/05/29 11:47:41;;;;;;;;;;;18.80;51.40;;;;;;461207;258;1178;-44
2021/05/29 11:49:43;;;;;;;;;;;18.80;51.30;;;;;;461161;258;1085;-44
2021/05/29 11:51:44;;;;;;;;;;;18.70;51.40;;;;;;461044;258;1300;-44
2021/05/29 11:53:45;;;;;;;;;;;18.70;51.40;;;;;;461373;258;1185;-45
2021/05/29 11:55:46;;;;;;;;;;;18.70;51.50;;;;;;461429;258;1116;-44
2021/05/29 11:57:48;;;;;;;;;;;18.70;51.50;;;;;;461151;258;1104;-44
2021/05/29 11:59:49;;;;;;;;;;;18.70;51.50;;;;;;461173;258;2173;-45
2021/05/29 12:01:51;;;;;;;;;;;18.70;51.50;;;;;;461521;258;1385;-45
2021/05/29 12:03:51;;;;;;;;;;;18.70;51.40;;;;;;461037;258;1942;-44
2021/05/29 12:05:53;;;;;;;;;;;18.70;51.50;;;;;;461243;258;1136;-44